Terminal Aerodrome Forecast
Issued by NWS

Home | Current Version | Previous Version | Text Only | Print | Product List | Glossary On
Versions: 1 2 3 4 5 6 7 8 9 10 11 12
389
FTUS44 KTSA 261737
TAFXNA
TAF
KXNA 261737Z 2618/2718 VRB05KT P6SM SCT035 BKN060
     FM270200 VRB03KT P6SM SCT025 BKN035
      TEMPO 2708/2712 BKN008 BKN012
     FM271200 01006KT P6SM BKN007 BKN012 PROB30 2712/2716 4SM -RA
      BKN010
     FM271600 02008KT P6SM BKN015 BKN022=

USA.gov is the U.S. government's official web portal to all federal, state and local government web resources and services.